sensor_id;sensor_type;location;lat;lon;timestamp;P1;durP1;ratioP1;P2;durP2;ratioP2
21418;SDS011;10870;51.384;10.316;2022-12-24T00:00:05;14.10;;;4.88;;
21418;SDS011;10870;51.384;10.316;2022-12-24T00:02:09;7.43;;;4.10;;
21418;SDS011;10870;51.384;10.316;2022-12-24T00:04:10;14.75;;;4.68;;
21418;SDS011;10870;51.384;10.316;2022-12-24T00:06:15;9.85;;;4.22;;
21418;SDS011;10870;51.384;10.316;2022-12-24T00:08:16;11.15;;;5.05;;
21418;SDS011;10870;51.384;10.316;2022-12-24T00:10:17;16.65;;;4.88;;
21418;SDS011;10870;51.384;10.316;2022-12-24T00:12:19;10.15;;;4.53;;
21418;SDS011;10870;51.384;10.316;2022-12-24T00:14:20;13.52;;;5.82;;
21418;SDS011;10870;51.384;10.316;2022-12-24T00:16:21;9.48;;;3.33;;
21418;SDS011;10870;51.384;10.316;2022-12-24T00:18:25;10.93;;;4.72;;
21418;SDS011;10870;51.384;10.316;2022-12-24T00:20:29;13.23;;;4.40;;
21418;SDS011;10870;51.384;10.316;2022-12-24T00:22:30;8.68;;;4.35;;
21418;SDS011;10870;51.384;10.316;2022-12-24T00:24:31;11.93;;;3.67;;
21418;SDS011;10870;51.384;10.316;2022-12-24T00:26:33;11.38;;;4.28;;
21418;SDS011;10870;51.384;10.316;2022-12-24T00:28:36;12.07;;;3.95;;
21418;SDS011;10870;51.384;10.316;2022-12-24T00:30:40;10.38;;;3.88;;
21418;SDS011;10870;51.384;10.316;2022-12-24T00:32:44;12.43;;;4.50;;
21418;SDS011;10870;51.384;10.316;2022-12-24T00:34:48;11.75;;;4.40;;
21418;SDS011;10870;51.384;10.316;2022-12-24T00:36:49;9.20;;;4.20;;
21418;SDS011;10870;51.384;10.316;2022-12-24T00:38:51;8.38;;;4.43;;
21418;SDS011;10870;51.384;10.316;2022-12-24T00:40:57;15.38;;;4.30;;
21418;SDS011;10870;51.384;10.316;2022-12-24T00:43:01;13.63;;;4.60;;
21418;SDS011;10870;51.384;10.316;2022-12-24T00:45:02;10.00;;;4.00;;
21418;SDS011;10870;51.384;10.316;2022-12-24T00:47:04;12.38;;;3.70;;
21418;SDS011;10870;51.384;10.316;2022-12-24T00:49:08;11.63;;;4.82;;
21418;SDS011;10870;51.384;10.316;2022-12-24T00:51:09;13.73;;;3.90;;
21418;SDS011;10870;51.384;10.316;2022-12-24T00:53:13;15.50;;;4.72;;
21418;SDS011;10870;51.384;10.316;2022-12-24T00:55:16;9.32;;;3.65;;
21418;SDS011;10870;51.384;10.316;2022-12-24T00:57:20;8.75;;;4.18;;
21418;SDS011;10870;51.384;10.316;2022-12-24T00:59:24;14.02;;;4.18;;
21418;SDS011;10870;51.384;10.316;2022-12-24T01:01:25;14.20;;;4.45;;
21418;SDS011;10870;51.384;10.316;2022-12-24T01:03:29;7.78;;;3.22;;
21418;SDS011;10870;51.384;10.316;2022-12-24T01:05:34;7.35;;;3.60;;
21418;SDS011;10870;51.384;10.316;2022-12-24T01:07:36;8.13;;;3.10;;
21418;SDS011;10870;51.384;10.316;2022-12-24T01:09:38;11.10;;;4.35;;
21418;SDS011;10870;51.384;10.316;2022-12-24T01:11:39;7.05;;;3.83;;
21418;SDS011;10870;51.384;10.316;2022-12-24T01:13:42;5.85;;;3.13;;
21418;SDS011;10870;51.384;10.316;2022-12-24T01:15:44;12.50;;;3.88;;
21418;SDS011;10870;51.384;10.316;2022-12-24T01:17:45;9.70;;;4.50;;
21418;SDS011;10870;51.384;10.316;2022-12-24T01:19:46;13.05;;;3.75;;
21418;SDS011;10870;51.384;10.316;2022-12-24T01:21:48;11.32;;;3.75;;
21418;SDS011;10870;51.384;10.316;2022-12-24T01:23:49;11.27;;;3.63;;
21418;SDS011;10870;51.384;10.316;2022-12-24T01:25:52;8.55;;;3.05;;
21418;SDS011;10870;51.384;10.316;2022-12-24T01:27:56;7.60;;;3.53;;
21418;SDS011;10870;51.384;10.316;2022-12-24T01:29:57;9.23;;;3.08;;
21418;SDS011;10870;51.384;10.316;2022-12-24T01:31:59;9.77;;;3.40;;
21418;SDS011;10870;51.384;10.316;2022-12-24T01:34:00;8.23;;;2.70;;
21418;SDS011;10870;51.384;10.316;2022-12-24T01:36:02;8.23;;;2.85;;
21418;SDS011;10870;51.384;10.316;2022-12-24T01:38:03;10.23;;;2.92;;
21418;SDS011;10870;51.384;10.316;2022-12-24T01:40:07;7.13;;;2.72;;
21418;SDS011;10870;51.384;10.316;2022-12-24T01:42:28;10.82;;;3.05;;
21418;SDS011;10870;51.384;10.316;2022-12-24T01:44:49;11.30;;;3.20;;
21418;SDS011;10870;51.384;10.316;2022-12-24T01:47:00;8.55;;;3.05;;
21418;SDS011;10870;51.384;10.316;2022-12-24T01:49:02;8.35;;;3.58;;
21418;SDS011;10870;51.384;10.316;2022-12-24T01:53:12;10.93;;;3.60;;
21418;SDS011;10870;51.384;10.316;2022-12-24T01:55:15;9.50;;;3.35;;
21418;SDS011;10870;51.384;10.316;2022-12-24T01:57:24;7.88;;;2.70;;
21418;SDS011;10870;51.384;10.316;2022-12-24T01:59:30;5.75;;;2.83;;
21418;SDS011;10870;51.384;10.316;2022-12-24T02:01:32;11.00;;;4.53;;
21418;SDS011;10870;51.384;10.316;2022-12-24T02:03:34;5.38;;;2.75;;
21418;SDS011;10870;51.384;10.316;2022-12-24T02:05:44;5.00;;;2.60;;
21418;SDS011;10870;51.384;10.316;2022-12-24T02:07:46;6.05;;;2.10;;
21418;SDS011;10870;51.384;10.316;2022-12-24T02:09:51;4.50;;;1.92;;
21418;SDS011;10870;51.384;10.316;2022-12-24T02:11:53;4.78;;;2.08;;
21418;SDS011;10870;51.384;10.316;2022-12-24T02:13:56;9.35;;;2.28;;
21418;SDS011;10870;51.384;10.316;2022-12-24T02:18:36;6.53;;;2.40;;
21418;SDS011;10870;51.384;10.316;2022-12-24T02:23:06;4.90;;;1.60;;
21418;SDS011;10870;51.384;10.316;2022-12-24T02:25:13;5.20;;;2.35;;
21418;SDS011;10870;51.384;10.316;2022-12-24T02:27:18;4.03;;;2.13;;
21418;SDS011;10870;51.384;10.316;2022-12-24T02:33:34;3.72;;;1.98;;
21418;SDS011;10870;51.384;10.316;2022-12-24T02:37:49;3.10;;;2.10;;
21418;SDS011;10870;51.384;10.316;2022-12-24T02:39:53;6.07;;;1.50;;
21418;SDS011;10870;51.384;10.316;2022-12-24T02:41:57;4.40;;;2.00;;
21418;SDS011;10870;51.384;10.316;2022-12-24T02:44:07;7.03;;;2.72;;
21418;SDS011;10870;51.384;10.316;2022-12-24T02:46:15;6.13;;;2.58;;
21418;SDS011;10870;51.384;10.316;2022-12-24T02:48:22;7.20;;;2.58;;
21418;SDS011;10870;51.384;10.316;2022-12-24T02:50:24;5.00;;;2.95;;
21418;SDS011;10870;51.384;10.316;2022-12-24T02:52:33;5.93;;;2.42;;
21418;SDS011;10870;51.384;10.316;2022-12-24T02:54:35;6.75;;;2.42;;
21418;SDS011;10870;51.384;10.316;2022-12-24T03:12:01;7.70;;;3.55;;
21418;SDS011;10870;51.384;10.316;2022-12-24T03:14:05;8.40;;;3.33;;
21418;SDS011;10870;51.384;10.316;2022-12-24T03:16:10;7.82;;;3.28;;
21418;SDS011;10870;51.384;10.316;2022-12-24T03:18:19;14.13;;;4.07;;
21418;SDS011;10870;51.384;10.316;2022-12-24T03:20:23;11.32;;;3.75;;
21418;SDS011;10870;51.384;10.316;2022-12-24T03:22:31;9.48;;;3.50;;
21418;SDS011;10870;51.384;10.316;2022-12-24T03:24:33;13.32;;;3.83;;
21418;SDS011;10870;51.384;10.316;2022-12-24T03:26:39;12.95;;;3.80;;
21418;SDS011;10870;51.384;10.316;2022-12-24T03:28:41;8.30;;;3.10;;
21418;SDS011;10870;51.384;10.316;2022-12-24T03:30:46;7.97;;;2.72;;
21418;SDS011;10870;51.384;10.316;2022-12-24T03:32:48;8.40;;;2.55;;
21418;SDS011;10870;51.384;10.316;2022-12-24T03:34:49;6.03;;;2.38;;
21418;SDS011;10870;51.384;10.316;2022-12-24T03:36:53;4.05;;;2.42;;
21418;SDS011;10870;51.384;10.316;2022-12-24T03:38:54;10.02;;;3.70;;
21418;SDS011;10870;51.384;10.316;2022-12-24T03:40:55;11.90;;;3.40;;
21418;SDS011;10870;51.384;10.316;2022-12-24T03:42:59;5.20;;;2.90;;
21418;SDS011;10870;51.384;10.316;2022-12-24T03:45:03;7.68;;;2.53;;
21418;SDS011;10870;51.384;10.316;2022-12-24T03:47:06;8.25;;;3.30;;
21418;SDS011;10870;51.384;10.316;2022-12-24T03:49:08;11.07;;;2.63;;
21418;SDS011;10870;51.384;10.316;2022-12-24T03:51:16;9.75;;;2.60;;
21418;SDS011;10870;51.384;10.316;2022-12-24T03:53:20;4.70;;;2.53;;
21418;SDS011;10870;51.384;10.316;2022-12-24T03:55:21;4.88;;;2.45;;
21418;SDS011;10870;51.384;10.316;2022-12-24T03:57:22;7.95;;;2.40;;
21418;SDS011;10870;51.384;10.316;2022-12-24T03:59:26;12.55;;;3.85;;
21418;SDS011;10870;51.384;10.316;2022-12-24T04:01:30;5.38;;;2.65;;
21418;SDS011;10870;51.384;10.316;2022-12-24T04:03:31;8.00;;;2.65;;
21418;SDS011;10870;51.384;10.316;2022-12-24T04:05:32;12.50;;;4.20;;
21418;SDS011;10870;51.384;10.316;2022-12-24T04:07:33;8.10;;;3.05;;
21418;SDS011;10870;51.384;10.316;2022-12-24T04:09:35;9.63;;;2.90;;
21418;SDS011;10870;51.384;10.316;2022-12-24T04:11:39;10.70;;;2.90;;
21418;SDS011;10870;51.384;10.316;2022-12-24T04:13:41;8.45;;;2.97;;
21418;SDS011;10870;51.384;10.316;2022-12-24T04:15:54;9.75;;;3.17;;
21418;SDS011;10870;51.384;10.316;2022-12-24T04:19:57;5.50;;;2.80;;
21418;SDS011;10870;51.384;10.316;2022-12-24T04:22:01;12.45;;;3.22;;
21418;SDS011;10870;51.384;10.316;2022-12-24T04:24:04;9.35;;;2.90;;
21418;SDS011;10870;51.384;10.316;2022-12-24T04:26:06;12.10;;;3.22;;
21418;SDS011;10870;51.384;10.316;2022-12-24T04:28:08;10.65;;;3.15;;
21418;SDS011;10870;51.384;10.316;2022-12-24T04:30:09;15.18;;;3.83;;
21418;SDS011;10870;51.384;10.316;2022-12-24T04:32:13;8.98;;;2.75;;
21418;SDS011;10870;51.384;10.316;2022-12-24T04:34:17;11.57;;;3.60;;
21418;SDS011;10870;51.384;10.316;2022-12-24T04:36:18;12.05;;;3.50;;
21418;SDS011;10870;51.384;10.316;2022-12-24T04:38:22;14.38;;;2.85;;
21418;SDS011;10870;51.384;10.316;2022-12-24T04:40:24;11.20;;;3.75;;
21418;SDS011;10870;51.384;10.316;2022-12-24T04:42:28;11.50;;;3.75;;
21418;SDS011;10870;51.384;10.316;2022-12-24T04:44:29;15.52;;;3.60;;
21418;SDS011;10870;51.384;10.316;2022-12-24T04:46:30;9.48;;;3.47;;
21418;SDS011;10870;51.384;10.316;2022-12-24T04:48:32;9.70;;;3.28;;
21418;SDS011;10870;51.384;10.316;2022-12-24T04:50:34;12.40;;;4.63;;
21418;SDS011;10870;51.384;10.316;2022-12-24T04:52:35;12.57;;;2.95;;
21418;SDS011;10870;51.384;10.316;2022-12-24T04:54:37;11.25;;;3.63;;
21418;SDS011;10870;51.384;10.316;2022-12-24T04:56:38;14.38;;;3.00;;
21418;SDS011;10870;51.384;10.316;2022-12-24T04:58:42;14.55;;;3.67;;
21418;SDS011;10870;51.384;10.316;2022-12-24T05:00:45;14.32;;;3.75;;
21418;SDS011;10870;51.384;10.316;2022-12-24T05:02:46;11.52;;;3.17;;
21418;SDS011;10870;51.384;10.316;2022-12-24T05:04:50;16.70;;;4.40;;
21418;SDS011;10870;51.384;10.316;2022-12-24T05:06:54;12.25;;;3.58;;
21418;SDS011;10870;51.384;10.316;2022-12-24T05:08:57;17.45;;;3.88;;
21418;SDS011;10870;51.384;10.316;2022-12-24T05:10:59;10.02;;;3.00;;
21418;SDS011;10870;51.384;10.316;2022-12-24T05:13:01;11.52;;;2.85;;
21418;SDS011;10870;51.384;10.316;2022-12-24T05:15:05;21.02;;;4.05;;
21418;SDS011;10870;51.384;10.316;2022-12-24T05:17:09;14.15;;;2.95;;
21418;SDS011;10870;51.384;10.316;2022-12-24T05:19:10;13.23;;;3.83;;
21418;SDS011;10870;51.384;10.316;2022-12-24T05:21:13;16.67;;;4.72;;
21418;SDS011;10870;51.384;10.316;2022-12-24T05:23:16;10.23;;;3.20;;
21418;SDS011;10870;51.384;10.316;2022-12-24T05:25:38;9.27;;;4.57;;
21418;SDS011;10870;51.384;10.316;2022-12-24T05:28:01;14.60;;;3.58;;
21418;SDS011;10870;51.384;10.316;2022-12-24T05:30:02;10.77;;;3.38;;
21418;SDS011;10870;51.384;10.316;2022-12-24T05:32:06;11.02;;;3.17;;
21418;SDS011;10870;51.384;10.316;2022-12-24T05:34:07;14.27;;;3.28;;
21418;SDS011;10870;51.384;10.316;2022-12-24T05:36:12;8.00;;;3.58;;
21418;SDS011;10870;51.384;10.316;2022-12-24T05:38:13;14.40;;;4.03;;
21418;SDS011;10870;51.384;10.316;2022-12-24T05:40:16;13.18;;;4.13;;
21418;SDS011;10870;51.384;10.316;2022-12-24T05:42:18;17.75;;;3.60;;
21418;SDS011;10870;51.384;10.316;2022-12-24T05:44:19;15.40;;;4.40;;
21418;SDS011;10870;51.384;10.316;2022-12-24T05:46:23;15.48;;;3.83;;
21418;SDS011;10870;51.384;10.316;2022-12-24T05:48:28;15.38;;;4.68;;
21418;SDS011;10870;51.384;10.316;2022-12-24T05:50:29;15.38;;;5.07;;
21418;SDS011;10870;51.384;10.316;2022-12-24T05:52:30;14.50;;;3.88;;
21418;SDS011;10870;51.384;10.316;2022-12-24T05:54:34;11.63;;;3.33;;
21418;SDS011;10870;51.384;10.316;2022-12-24T05:56:35;14.55;;;3.78;;
21418;SDS011;10870;51.384;10.316;2022-12-24T05:58:39;9.70;;;3.20;;
21418;SDS011;10870;51.384;10.316;2022-12-24T06:00:43;13.82;;;3.55;;
21418;SDS011;10870;51.384;10.316;2022-12-24T06:02:44;15.00;;;4.43;;
21418;SDS011;10870;51.384;10.316;2022-12-24T06:04:52;11.15;;;4.03;;
21418;SDS011;10870;51.384;10.316;2022-12-24T06:06:56;13.80;;;4.15;;
21418;SDS011;10870;51.384;10.316;2022-12-24T06:08:57;11.75;;;3.85;;
21418;SDS011;10870;51.384;10.316;2022-12-24T06:11:01;13.60;;;4.30;;
21418;SDS011;10870;51.384;10.316;2022-12-24T06:13:03;15.30;;;4.47;;
21418;SDS011;10870;51.384;10.316;2022-12-24T06:15:04;11.32;;;3.50;;
21418;SDS011;10870;51.384;10.316;2022-12-24T06:17:08;14.55;;;3.72;;
21418;SDS011;10870;51.384;10.316;2022-12-24T06:19:09;15.02;;;3.88;;
21418;SDS011;10870;51.384;10.316;2022-12-24T06:21:11;10.40;;;3.75;;
21418;SDS011;10870;51.384;10.316;2022-12-24T06:23:15;19.15;;;3.75;;
21418;SDS011;10870;51.384;10.316;2022-12-24T06:25:21;20.48;;;4.38;;
21418;SDS011;10870;51.384;10.316;2022-12-24T06:27:22;14.68;;;4.45;;
21418;SDS011;10870;51.384;10.316;2022-12-24T06:29:23;21.75;;;4.32;;
21418;SDS011;10870;51.384;10.316;2022-12-24T06:31:25;13.13;;;4.90;;
21418;SDS011;10870;51.384;10.316;2022-12-24T06:33:26;14.65;;;4.55;;
21418;SDS011;10870;51.384;10.316;2022-12-24T06:35:29;17.10;;;4.13;;
21418;SDS011;10870;51.384;10.316;2022-12-24T06:37:33;18.67;;;4.22;;
21418;SDS011;10870;51.384;10.316;2022-12-24T06:39:34;17.23;;;4.57;;
21418;SDS011;10870;51.384;10.316;2022-12-24T06:41:36;16.25;;;4.63;;
21418;SDS011;10870;51.384;10.316;2022-12-24T06:43:37;21.33;;;5.53;;
21418;SDS011;10870;51.384;10.316;2022-12-24T06:45:39;15.95;;;4.05;;
21418;SDS011;10870;51.384;10.316;2022-12-24T06:47:43;18.27;;;3.88;;
21418;SDS011;10870;51.384;10.316;2022-12-24T06:49:46;10.88;;;4.40;;
21418;SDS011;10870;51.384;10.316;2022-12-24T06:51:48;25.80;;;6.28;;
21418;SDS011;10870;51.384;10.316;2022-12-24T06:53:54;15.75;;;4.38;;
21418;SDS011;10870;51.384;10.316;2022-12-24T06:58:03;19.58;;;5.80;;
21418;SDS011;10870;51.384;10.316;2022-12-24T07:00:10;20.70;;;4.88;;
21418;SDS011;10870;51.384;10.316;2022-12-24T07:02:14;28.15;;;6.60;;
21418;SDS011;10870;51.384;10.316;2022-12-24T07:04:15;11.57;;;4.93;;
21418;SDS011;10870;51.384;10.316;2022-12-24T07:06:22;21.08;;;5.57;;
21418;SDS011;10870;51.384;10.316;2022-12-24T07:08:24;16.05;;;5.22;;
21418;SDS011;10870;51.384;10.316;2022-12-24T07:10:28;15.75;;;4.75;;
21418;SDS011;10870;51.384;10.316;2022-12-24T07:12:31;15.38;;;4.85;;
21418;SDS011;10870;51.384;10.316;2022-12-24T07:14:33;18.42;;;4.22;;
21418;SDS011;10870;51.384;10.316;2022-12-24T07:16:35;19.58;;;4.20;;
21418;SDS011;10870;51.384;10.316;2022-12-24T07:18:41;17.52;;;4.47;;
21418;SDS011;10870;51.384;10.316;2022-12-24T07:20:44;15.75;;;4.50;;
21418;SDS011;10870;51.384;10.316;2022-12-24T07:22:46;13.68;;;4.32;;
21418;SDS011;10870;51.384;10.316;2022-12-24T07:24:50;25.08;;;4.45;;
21418;SDS011;10870;51.384;10.316;2022-12-24T07:26:51;16.40;;;4.38;;
21418;SDS011;10870;51.384;10.316;2022-12-24T07:28:56;18.90;;;4.43;;
21418;SDS011;10870;51.384;10.316;2022-12-24T07:30:58;17.60;;;4.35;;
21418;SDS011;10870;51.384;10.316;2022-12-24T07:33:00;20.77;;;4.88;;
21418;SDS011;10870;51.384;10.316;2022-12-24T07:35:06;21.38;;;5.82;;
21418;SDS011;10870;51.384;10.316;2022-12-24T07:37:12;16.80;;;4.57;;
21418;SDS011;10870;51.384;10.316;2022-12-24T07:39:13;15.50;;;4.50;;
21418;SDS011;10870;51.384;10.316;2022-12-24T07:41:16;16.90;;;4.68;;
21418;SDS011;10870;51.384;10.316;2022-12-24T07:43:18;17.48;;;4.47;;
21418;SDS011;10870;51.384;10.316;2022-12-24T07:45:21;15.63;;;4.47;;
21418;SDS011;10870;51.384;10.316;2022-12-24T07:47:27;19.17;;;4.72;;
21418;SDS011;10870;51.384;10.316;2022-12-24T07:49:30;18.52;;;4.78;;
21418;SDS011;10870;51.384;10.316;2022-12-24T07:51:32;18.35;;;3.70;;
21418;SDS011;10870;51.384;10.316;2022-12-24T07:53:35;23.67;;;6.78;;
21418;SDS011;10870;51.384;10.316;2022-12-24T07:55:37;18.15;;;4.97;;
21418;SDS011;10870;51.384;10.316;2022-12-24T07:57:38;20.77;;;5.13;;
21418;SDS011;10870;51.384;10.316;2022-12-24T07:59:40;17.80;;;4.80;;
21418;SDS011;10870;51.384;10.316;2022-12-24T08:01:41;19.90;;;3.80;;
21418;SDS011;10870;51.384;10.316;2022-12-24T08:03:54;17.85;;;4.05;;
21418;SDS011;10870;51.384;10.316;2022-12-24T08:05:55;15.63;;;4.22;;
21418;SDS011;10870;51.384;10.316;2022-12-24T08:07:57;15.85;;;3.97;;
21418;SDS011;10870;51.384;10.316;2022-12-24T08:09:59;15.45;;;3.10;;
21418;SDS011;10870;51.384;10.316;2022-12-24T08:12:03;15.07;;;3.30;;
21418;SDS011;10870;51.384;10.316;2022-12-24T08:14:04;16.50;;;3.88;;
21418;SDS011;10870;51.384;10.316;2022-12-24T08:16:08;14.10;;;4.55;;
21418;SDS011;10870;51.384;10.316;2022-12-24T08:18:09;12.20;;;3.33;;
21418;SDS011;10870;51.384;10.316;2022-12-24T08:20:13;13.02;;;4.00;;
21418;SDS011;10870;51.384;10.316;2022-12-24T08:22:16;14.15;;;3.42;;
21418;SDS011;10870;51.384;10.316;2022-12-24T08:24:20;9.45;;;3.50;;
21418;SDS011;10870;51.384;10.316;2022-12-24T08:26:21;12.32;;;3.10;;
21418;SDS011;10870;51.384;10.316;2022-12-24T08:28:25;15.90;;;3.97;;
21418;SDS011;10870;51.384;10.316;2022-12-24T08:30:26;16.30;;;3.55;;
21418;SDS011;10870;51.384;10.316;2022-12-24T08:32:27;11.18;;;3.40;;
21418;SDS011;10870;51.384;10.316;2022-12-24T08:34:31;13.15;;;3.50;;
21418;SDS011;10870;51.384;10.316;2022-12-24T08:36:33;12.48;;;3.25;;
21418;SDS011;10870;51.384;10.316;2022-12-24T08:38:37;9.63;;;3.45;;
21418;SDS011;10870;51.384;10.316;2022-12-24T08:40:38;17.77;;;2.90;;
21418;SDS011;10870;51.384;10.316;2022-12-24T08:42:41;9.40;;;3.05;;
21418;SDS011;10870;51.384;10.316;2022-12-24T08:44:43;11.05;;;3.85;;
21418;SDS011;10870;51.384;10.316;2022-12-24T08:46:46;11.20;;;3.22;;
21418;SDS011;10870;51.384;10.316;2022-12-24T08:48:50;10.68;;;3.05;;
21418;SDS011;10870;51.384;10.316;2022-12-24T08:50:51;15.75;;;3.75;;
21418;SDS011;10870;51.384;10.316;2022-12-24T08:52:55;12.80;;;2.92;;
21418;SDS011;10870;51.384;10.316;2022-12-24T08:54:56;16.05;;;3.53;;
21418;SDS011;10870;51.384;10.316;2022-12-24T08:56:58;10.20;;;3.80;;
21418;SDS011;10870;51.384;10.316;2022-12-24T08:58:59;9.55;;;3.42;;
21418;SDS011;10870;51.384;10.316;2022-12-24T09:01:01;7.78;;;3.50;;
21418;SDS011;10870;51.384;10.316;2022-12-24T09:03:02;8.88;;;2.67;;
21418;SDS011;10870;51.384;10.316;2022-12-24T09:05:04;8.80;;;3.25;;
21418;SDS011;10870;51.384;10.316;2022-12-24T09:07:06;9.68;;;3.33;;
21418;SDS011;10870;51.384;10.316;2022-12-24T09:09:12;10.70;;;3.13;;
21418;SDS011;10870;51.384;10.316;2022-12-24T09:11:17;14.43;;;3.47;;
21418;SDS011;10870;51.384;10.316;2022-12-24T09:13:22;17.83;;;4.00;;
21418;SDS011;10870;51.384;10.316;2022-12-24T09:15:29;7.22;;;3.00;;
21418;SDS011;10870;51.384;10.316;2022-12-24T09:17:30;11.38;;;3.03;;
21418;SDS011;10870;51.384;10.316;2022-12-24T09:19:31;13.45;;;2.63;;
21418;SDS011;10870;51.384;10.316;2022-12-24T09:21:36;9.70;;;2.85;;
21418;SDS011;10870;51.384;10.316;2022-12-24T09:23:40;9.50;;;2.83;;
21418;SDS011;10870;51.384;10.316;2022-12-24T09:25:46;6.57;;;2.47;;
21418;SDS011;10870;51.384;10.316;2022-12-24T09:27:48;10.02;;;2.47;;
21418;SDS011;10870;51.384;10.316;2022-12-24T09:29:49;7.13;;;2.80;;
21418;SDS011;10870;51.384;10.316;2022-12-24T09:31:51;10.90;;;3.22;;
21418;SDS011;10870;51.384;10.316;2022-12-24T09:33:54;14.52;;;3.20;;
21418;SDS011;10870;51.384;10.316;2022-12-24T09:35:55;11.95;;;3.38;;
21418;SDS011;10870;51.384;10.316;2022-12-24T09:37:59;10.38;;;2.78;;
21418;SDS011;10870;51.384;10.316;2022-12-24T09:40:04;10.57;;;2.88;;
21418;SDS011;10870;51.384;10.316;2022-12-24T09:46:23;8.82;;;2.58;;
21418;SDS011;10870;51.384;10.316;2022-12-24T09:48:31;10.88;;;3.30;;
21418;SDS011;10870;51.384;10.316;2022-12-24T09:52:56;9.90;;;2.70;;
21418;SDS011;10870;51.384;10.316;2022-12-24T09:55:19;6.93;;;2.65;;
21418;SDS011;10870;51.384;10.316;2022-12-24T09:57:26;23.73;;;4.53;;
21418;SDS011;10870;51.384;10.316;2022-12-24T09:59:34;6.95;;;2.83;;
21418;SDS011;10870;51.384;10.316;2022-12-24T10:01:41;13.90;;;3.35;;
21418;SDS011;10870;51.384;10.316;2022-12-24T10:03:43;9.32;;;3.15;;
21418;SDS011;10870;51.384;10.316;2022-12-24T10:05:48;10.00;;;3.25;;
21418;SDS011;10870;51.384;10.316;2022-12-24T10:08:02;8.95;;;3.08;;
21418;SDS011;10870;51.384;10.316;2022-12-24T10:21:05;8.93;;;3.97;;
21418;SDS011;10870;51.384;10.316;2022-12-24T10:27:29;8.43;;;2.70;;
21418;SDS011;10870;51.384;10.316;2022-12-24T10:29:34;10.38;;;2.83;;
21418;SDS011;10870;51.384;10.316;2022-12-24T10:34:11;10.30;;;3.47;;
21418;SDS011;10870;51.384;10.316;2022-12-24T10:36:18;10.88;;;3.70;;
21418;SDS011;10870;51.384;10.316;2022-12-24T10:38:26;10.38;;;3.70;;
21418;SDS011;10870;51.384;10.316;2022-12-24T10:40:42;10.07;;;3.55;;
21418;SDS011;10870;51.384;10.316;2022-12-24T10:42:44;10.27;;;3.47;;
21418;SDS011;10870;51.384;10.316;2022-12-24T10:44:51;12.00;;;3.08;;
21418;SDS011;10870;51.384;10.316;2022-12-24T10:46:57;13.52;;;3.53;;
21418;SDS011;10870;51.384;10.316;2022-12-24T10:49:04;11.75;;;4.10;;
21418;SDS011;10870;51.384;10.316;2022-12-24T10:51:11;13.73;;;4.47;;
21418;SDS011;10870;51.384;10.316;2022-12-24T10:53:19;8.90;;;3.80;;
21418;SDS011;10870;51.384;10.316;2022-12-24T10:55:22;14.00;;;4.20;;
21418;SDS011;10870;51.384;10.316;2022-12-24T10:57:26;12.20;;;3.83;;
21418;SDS011;10870;51.384;10.316;2022-12-24T10:59:29;7.97;;;3.50;;
21418;SDS011;10870;51.384;10.316;2022-12-24T11:01:44;12.43;;;3.50;;
21418;SDS011;10870;51.384;10.316;2022-12-24T11:03:48;11.60;;;4.25;;
21418;SDS011;10870;51.384;10.316;2022-12-24T11:06:03;12.98;;;3.28;;
21418;SDS011;10870;51.384;10.316;2022-12-24T11:10:22;12.38;;;2.95;;
21418;SDS011;10870;51.384;10.316;2022-12-24T11:12:24;10.60;;;3.38;;
21418;SDS011;10870;51.384;10.316;2022-12-24T11:14:32;9.23;;;3.63;;
21418;SDS011;10870;51.384;10.316;2022-12-24T11:16:36;9.10;;;3.13;;
21418;SDS011;10870;51.384;10.316;2022-12-24T11:18:49;11.98;;;4.20;;
21418;SDS011;10870;51.384;10.316;2022-12-24T11:20:51;14.10;;;3.83;;
21418;SDS011;10870;51.384;10.316;2022-12-24T11:22:53;15.40;;;4.25;;
21418;SDS011;10870;51.384;10.316;2022-12-24T11:25:40;8.90;;;3.72;;
21418;SDS011;10870;51.384;10.316;2022-12-24T11:27:31;12.95;;;4.18;;
21418;SDS011;10870;51.384;10.316;2022-12-24T11:29:35;13.75;;;4.22;;
21418;SDS011;10870;51.384;10.316;2022-12-24T11:31:39;16.60;;;4.90;;
21418;SDS011;10870;51.384;10.316;2022-12-24T11:33:47;12.20;;;4.47;;
21418;SDS011;10870;51.384;10.316;2022-12-24T11:35:53;9.85;;;3.75;;
21418;SDS011;10870;51.384;10.316;2022-12-24T11:40:02;10.95;;;4.45;;
21418;SDS011;10870;51.384;10.316;2022-12-24T11:42:06;12.98;;;4.43;;
21418;SDS011;10870;51.384;10.316;2022-12-24T11:44:26;12.52;;;4.65;;
21418;SDS011;10870;51.384;10.316;2022-12-24T11:48:36;11.75;;;4.72;;
21418;SDS011;10870;51.384;10.316;2022-12-24T11:50:37;13.70;;;4.72;;
21418;SDS011;10870;51.384;10.316;2022-12-24T11:52:41;11.68;;;4.40;;
21418;SDS011;10870;51.384;10.316;2022-12-24T11:57:07;15.32;;;5.15;;
21418;SDS011;10870;51.384;10.316;2022-12-24T12:04:16;11.88;;;4.57;;
21418;SDS011;10870;51.384;10.316;2022-12-24T12:06:27;16.35;;;5.20;;
21418;SDS011;10870;51.384;10.316;2022-12-24T12:08:34;9.88;;;3.90;;
21418;SDS011;10870;51.384;10.316;2022-12-24T12:10:36;14.63;;;4.78;;
21418;SDS011;10870;51.384;10.316;2022-12-24T12:12:41;12.48;;;4.35;;
21418;SDS011;10870;51.384;10.316;2022-12-24T12:14:47;20.38;;;5.53;;
21418;SDS011;10870;51.384;10.316;2022-12-24T12:19:03;13.20;;;4.55;;
21418;SDS011;10870;51.384;10.316;2022-12-24T12:21:10;14.80;;;4.60;;
21418;SDS011;10870;51.384;10.316;2022-12-24T12:23:23;14.00;;;6.47;;
21418;SDS011;10870;51.384;10.316;2022-12-24T12:25:27;16.52;;;4.60;;
21418;SDS011;10870;51.384;10.316;2022-12-24T12:27:43;11.65;;;4.93;;
21418;SDS011;10870;51.384;10.316;2022-12-24T12:29:48;13.73;;;5.57;;
21418;SDS011;10870;51.384;10.316;2022-12-24T12:31:58;12.25;;;5.50;;
21418;SDS011;10870;51.384;10.316;2022-12-24T12:36:13;13.63;;;5.67;;
21418;SDS011;10870;51.384;10.316;2022-12-24T12:38:20;12.13;;;4.68;;
21418;SDS011;10870;51.384;10.316;2022-12-24T12:40:25;9.23;;;4.03;;
21418;SDS011;10870;51.384;10.316;2022-12-24T12:42:32;12.40;;;5.05;;
21418;SDS011;10870;51.384;10.316;2022-12-24T12:49:25;7.38;;;3.78;;
21418;SDS011;10870;51.384;10.316;2022-12-24T12:51:41;16.02;;;4.47;;
21418;SDS011;10870;51.384;10.316;2022-12-24T12:58:13;10.30;;;3.40;;
21418;SDS011;10870;51.384;10.316;2022-12-24T13:00:16;13.13;;;3.95;;
21418;SDS011;10870;51.384;10.316;2022-12-24T13:04:51;11.85;;;4.57;;
21418;SDS011;10870;51.384;10.316;2022-12-24T13:09:38;14.55;;;4.55;;
21418;SDS011;10870;51.384;10.316;2022-12-24T13:11:48;12.10;;;4.10;;
21418;SDS011;10870;51.384;10.316;2022-12-24T13:18:09;16.48;;;4.97;;
21418;SDS011;10870;51.384;10.316;2022-12-24T13:20:28;13.20;;;3.65;;
21418;SDS011;10870;51.384;10.316;2022-12-24T13:22:31;14.90;;;4.93;;
21418;SDS011;10870;51.384;10.316;2022-12-24T13:24:34;10.85;;;4.50;;
21418;SDS011;10870;51.384;10.316;2022-12-24T13:26:36;14.10;;;4.97;;
21418;SDS011;10870;51.384;10.316;2022-12-24T13:28:40;17.90;;;4.53;;
21418;SDS011;10870;51.384;10.316;2022-12-24T13:30:47;18.05;;;4.85;;
21418;SDS011;10870;51.384;10.316;2022-12-24T13:32:54;14.77;;;5.30;;
21418;SDS011;10870;51.384;10.316;2022-12-24T13:35:21;13.05;;;4.72;;
21418;SDS011;10870;51.384;10.316;2022-12-24T13:37:31;15.30;;;5.32;;
21418;SDS011;10870;51.384;10.316;2022-12-24T13:41:52;14.02;;;5.25;;
21418;SDS011;10870;51.384;10.316;2022-12-24T13:46:10;14.70;;;6.00;;
21418;SDS011;10870;51.384;10.316;2022-12-24T13:50:47;17.33;;;6.40;;